Thornton, CO (80229)

12:11 PM MDT on August 29, 2014 (GMT -0600)
Northglenn | Change Station
CLOSE
Current Station
Personal Weather Station
Location: Northglenn, CO
Elevation: 5315 ft
Nearby Weather Stations

Elev 5315 ft 39.89 °N, 104.97 °W | Updated 11 minutes ago

Partly Cloudy
Partly Cloudy
83.3 °F
Feels Like 82 °F
N
3.7
Wind Variable Wind from WSW

Today
High -- | Low -- °F
--% Chance of Precip.
Yesterday
High -- | Low -- °F
Precip. -- in
6:25 AM 7:35 PM
Waxing Crescent, 15% visible
Pressure 30.13 in
Visibility 60.0 miles
Clouds Few 8000 ft
Mostly Cloudy 12000 ft
Heat Index 82 °F
Dew Point 52 °F
Humidity 34%
Rainfall 0.00 in
Snow Depth Not available.
UV 5 out of 12
Pollen 10.40 out of 12
Ozone Good
PM2.5 Good
Flu Activity Not available.
METAR KBJC 291747Z 05012KT 60SM FEW080 BKN120 26/07 A3013

More Conditions Fewer Conditions

Pressure 30.13 in
Visibility 60.0 miles
Clouds Few 8000 ft
Mostly Cloudy 12000 ft
Heat Index 82 °F
Dew Point 52 °F
Humidity 34%
Rainfall 0.00 in
Snow Depth Not available.
UV 5 out of 12
Pollen 10.40 out of 12
Ozone Good
PM2.5 Good
Flu Activity Not available.
METAR KBJC 291747Z 05012KT 60SM FEW080 BKN120 26/07 A3013

More Conditions Fewer Conditions

Nowcast | as of 11:52 am MDT on August 29, 2014

Isolated showers and thunderstorms developing over the foothills of Larimer...Boulder and Jefferson counties...will drift southeast across the urban corridor through early this afternoon. The storms will produce dangerous cloud to ground lightning...some brief light to moderate rainfall and wind gusts to 35 mph.

×

10-Day Weather Forecast

Almanac

Astronomy

Aug. 29, 2014 Rise Set
Actual Time 6:25 AM MDT 7:35 PM MDT
Civil Twilight 5:57 AM MDT 8:03 PM MDT
Nautical Twilight 5:23 AM MDT 8:36 PM MDT
Astronomical Twilight 4:48 AM MDT 9:11 PM MDT
Moon 10:16 AM MDT 9:35 PM MDT
Length of Visible Light 14h 06m
Length of Day
13h 10m
Tomorrow will be 2m 29s shorter.
Waxing Crescent, 15% of the Moon is Illuminated
Today
Waxing Crescent
Sep 2
First Quarter
Sep 8
Full
Sep 15
Last Quarter
Sep 24
New

Today's Extremes

State Highs State Lows

Community

WunderPhotos

Upload Photos

1,748,309 photos uploaded!

Nearby

Air Quality

  Air Quality AQ Index Pollutant
Yesterday Good
OZONE
Yesterday Good
PM10
Current Good
OZONE
Current Good
PM2.5
Friday Moderate
OZONE
Friday Good
PM2.5

Snow Depth

Station Depth Elevation
Niwot 0 in 9910 ft
University Camp 0 in 10300 ft
Wild Basin 0 in 9560 ft
Jackwhacker Gulch 0 in 10960 ft
Loveland Basin 1 in 11400 ft

Earthquake Activity

City Distance Mag. Time & Date
No recent earthquake activity has been reported nearby.
Minimum magnitude displayed is 2.5.

Coastal Water Temperatures

Place Temperature
No Stations Reporting

Nearby Weather Stations